sensor_id;sensor_type;location;lat;lon;timestamp;P1;durP1;ratioP1;P2;durP2;ratioP2
68757;SDS011;55747;51.998;4.466;2022-08-01T00:01:45;9.07;;;6.20;;
68757;SDS011;55747;51.998;4.466;2022-08-01T00:04:10;12.23;;;6.43;;
68757;SDS011;55747;51.998;4.466;2022-08-01T00:06:35;13.23;;;6.07;;
68757;SDS011;55747;51.998;4.466;2022-08-01T00:09:01;11.77;;;6.20;;
68757;SDS011;55747;51.998;4.466;2022-08-01T00:11:26;12.57;;;6.27;;
68757;SDS011;55747;51.998;4.466;2022-08-01T00:13:51;10.90;;;6.20;;
68757;SDS011;55747;51.998;4.466;2022-08-01T00:16:17;10.27;;;5.80;;
68757;SDS011;55747;51.998;4.466;2022-08-01T00:18:43;12.05;;;6.07;;
68757;SDS011;55747;51.998;4.466;2022-08-01T00:21:08;11.67;;;6.27;;
68757;SDS011;55747;51.998;4.466;2022-08-01T00:23:33;13.43;;;6.33;;
68757;SDS011;55747;51.998;4.466;2022-08-01T00:25:58;10.73;;;5.90;;
68757;SDS011;55747;51.998;4.466;2022-08-01T00:28:24;12.63;;;6.60;;
68757;SDS011;55747;51.998;4.466;2022-08-01T00:30:49;10.82;;;6.18;;
68757;SDS011;55747;51.998;4.466;2022-08-01T00:33:14;13.57;;;6.63;;
68757;SDS011;55747;51.998;4.466;2022-08-01T00:35:40;12.03;;;6.63;;
68757;SDS011;55747;51.998;4.466;2022-08-01T00:38:05;11.45;;;6.47;;
68757;SDS011;55747;51.998;4.466;2022-08-01T00:40:30;14.10;;;6.77;;
68757;SDS011;55747;51.998;4.466;2022-08-01T00:42:56;11.75;;;6.65;;
68757;SDS011;55747;51.998;4.466;2022-08-01T00:45:21;13.17;;;6.80;;
68757;SDS011;55747;51.998;4.466;2022-08-01T00:47:46;15.17;;;7.47;;
68757;SDS011;55747;51.998;4.466;2022-08-01T00:50:12;10.57;;;6.13;;
68757;SDS011;55747;51.998;4.466;2022-08-01T00:52:37;10.68;;;5.85;;
68757;SDS011;55747;51.998;4.466;2022-08-01T00:55:04;9.70;;;5.22;;
68757;SDS011;55747;51.998;4.466;2022-08-01T00:57:30;10.27;;;5.10;;
68757;SDS011;55747;51.998;4.466;2022-08-01T00:59:55;7.72;;;4.97;;
68757;SDS011;55747;51.998;4.466;2022-08-01T01:02:21;7.28;;;4.00;;
68757;SDS011;55747;51.998;4.466;2022-08-01T01:04:46;5.32;;;3.50;;
68757;SDS011;55747;51.998;4.466;2022-08-01T01:09:50;5.70;;;3.15;;
68757;SDS011;55747;51.998;4.466;2022-08-01T01:15:10;5.03;;;2.80;;
68757;SDS011;55747;51.998;4.466;2022-08-01T01:17:57;5.18;;;2.70;;
68757;SDS011;55747;51.998;4.466;2022-08-01T01:20:28;5.05;;;2.67;;
68757;SDS011;55747;51.998;4.466;2022-08-01T01:23:21;8.27;;;2.55;;
68757;SDS011;55747;51.998;4.466;2022-08-01T01:26:04;3.75;;;2.60;;
68757;SDS011;55747;51.998;4.466;2022-08-01T01:31:33;5.65;;;2.78;;
68757;SDS011;55747;51.998;4.466;2022-08-01T01:34:05;4.32;;;2.75;;
68757;SDS011;55747;51.998;4.466;2022-08-01T01:36:34;4.57;;;2.55;;
68757;SDS011;55747;51.998;4.466;2022-08-01T01:39:01;4.57;;;2.80;;
68757;SDS011;55747;51.998;4.466;2022-08-01T01:41:27;3.55;;;2.90;;
68757;SDS011;55747;51.998;4.466;2022-08-01T01:43:55;3.90;;;2.72;;
68757;SDS011;55747;51.998;4.466;2022-08-01T01:46:22;5.22;;;2.80;;
68757;SDS011;55747;51.998;4.466;2022-08-01T01:48:52;4.95;;;3.00;;
68757;SDS011;55747;51.998;4.466;2022-08-01T01:51:21;5.38;;;2.70;;
68757;SDS011;55747;51.998;4.466;2022-08-01T01:53:49;4.78;;;3.25;;
68757;SDS011;55747;51.998;4.466;2022-08-01T01:56:17;4.88;;;3.20;;
68757;SDS011;55747;51.998;4.466;2022-08-01T01:58:44;4.82;;;3.25;;
68757;SDS011;55747;51.998;4.466;2022-08-01T02:01:13;6.32;;;3.50;;
68757;SDS011;55747;51.998;4.466;2022-08-01T02:03:40;5.63;;;3.63;;
68757;SDS011;55747;51.998;4.466;2022-08-01T02:06:08;6.63;;;3.60;;
68757;SDS011;55747;51.998;4.466;2022-08-01T02:08:33;6.07;;;3.97;;
68757;SDS011;55747;51.998;4.466;2022-08-01T02:11:00;5.43;;;3.65;;
68757;SDS011;55747;51.998;4.466;2022-08-01T02:13:43;6.95;;;4.20;;
68757;SDS011;55747;51.998;4.466;2022-08-01T02:16:09;6.30;;;4.10;;
68757;SDS011;55747;51.998;4.466;2022-08-01T02:18:37;6.85;;;3.85;;
68757;SDS011;55747;51.998;4.466;2022-08-01T02:21:03;9.25;;;4.20;;
68757;SDS011;55747;51.998;4.466;2022-08-01T02:23:33;6.65;;;4.22;;
68757;SDS011;55747;51.998;4.466;2022-08-01T02:26:01;6.07;;;4.35;;
68757;SDS011;55747;51.998;4.466;2022-08-01T02:31:04;6.78;;;4.88;;
68757;SDS011;55747;51.998;4.466;2022-08-01T02:33:34;7.35;;;5.20;;
68757;SDS011;55747;51.998;4.466;2022-08-01T02:36:06;10.38;;;5.00;;
68757;SDS011;55747;51.998;4.466;2022-08-01T02:38:33;8.52;;;5.30;;
68757;SDS011;55747;51.998;4.466;2022-08-01T02:41:07;9.70;;;5.85;;
68757;SDS011;55747;51.998;4.466;2022-08-01T02:43:36;8.73;;;5.10;;
68757;SDS011;55747;51.998;4.466;2022-08-01T02:46:04;6.97;;;5.30;;
68757;SDS011;55747;51.998;4.466;2022-08-01T02:48:33;7.40;;;5.45;;
68757;SDS011;55747;51.998;4.466;2022-08-01T02:51:01;7.07;;;5.07;;
68757;SDS011;55747;51.998;4.466;2022-08-01T02:53:29;10.90;;;5.78;;
68757;SDS011;55747;51.998;4.466;2022-08-01T02:55:57;9.20;;;5.03;;
68757;SDS011;55747;51.998;4.466;2022-08-01T02:58:24;6.25;;;5.22;;
68757;SDS011;55747;51.998;4.466;2022-08-01T03:00:50;6.38;;;4.65;;
68757;SDS011;55747;51.998;4.466;2022-08-01T03:03:16;5.82;;;4.40;;
68757;SDS011;55747;51.998;4.466;2022-08-01T03:05:42;7.25;;;4.47;;
68757;SDS011;55747;51.998;4.466;2022-08-01T03:08:09;6.40;;;4.88;;
68757;SDS011;55747;51.998;4.466;2022-08-01T03:10:36;9.02;;;4.00;;
68757;SDS011;55747;51.998;4.466;2022-08-01T03:13:05;5.70;;;4.20;;
68757;SDS011;55747;51.998;4.466;2022-08-01T03:15:33;5.68;;;3.75;;
68757;SDS011;55747;51.998;4.466;2022-08-01T03:18:01;7.38;;;3.22;;
68757;SDS011;55747;51.998;4.466;2022-08-01T03:20:30;3.20;;;2.60;;
68757;SDS011;55747;51.998;4.466;2022-08-01T03:23:00;4.47;;;2.22;;
68757;SDS011;55747;51.998;4.466;2022-08-01T03:25:28;3.47;;;2.30;;
68757;SDS011;55747;51.998;4.466;2022-08-01T03:27:56;2.97;;;2.38;;
68757;SDS011;55747;51.998;4.466;2022-08-01T03:30:26;3.70;;;2.10;;
68757;SDS011;55747;51.998;4.466;2022-08-01T03:32:52;2.33;;;2.10;;
68757;SDS011;55747;51.998;4.466;2022-08-01T03:35:19;3.08;;;1.90;;
68757;SDS011;55747;51.998;4.466;2022-08-01T03:37:47;2.00;;;1.52;;
68757;SDS011;55747;51.998;4.466;2022-08-01T03:40:28;3.30;;;1.70;;
68757;SDS011;55747;51.998;4.466;2022-08-01T03:43:02;2.60;;;1.70;;
68757;SDS011;55747;51.998;4.466;2022-08-01T03:45:34;2.75;;;1.67;;
68757;SDS011;55747;51.998;4.466;2022-08-01T03:48:02;1.60;;;1.50;;
68757;SDS011;55747;51.998;4.466;2022-08-01T03:53:00;4.97;;;1.80;;
68757;SDS011;55747;51.998;4.466;2022-08-01T03:55:27;2.90;;;2.08;;
68757;SDS011;55747;51.998;4.466;2022-08-01T03:57:54;3.38;;;2.33;;
68757;SDS011;55747;51.998;4.466;2022-08-01T04:00:21;3.78;;;2.20;;
68757;SDS011;55747;51.998;4.466;2022-08-01T04:02:48;7.15;;;2.38;;
68757;SDS011;55747;51.998;4.466;2022-08-01T04:05:14;5.78;;;2.35;;
68757;SDS011;55747;51.998;4.466;2022-08-01T04:07:44;3.80;;;2.28;;
68757;SDS011;55747;51.998;4.466;2022-08-01T04:10:11;3.23;;;2.20;;
68757;SDS011;55747;51.998;4.466;2022-08-01T04:12:37;4.35;;;2.20;;
68757;SDS011;55747;51.998;4.466;2022-08-01T04:15:03;3.55;;;2.40;;
68757;SDS011;55747;51.998;4.466;2022-08-01T04:17:29;4.07;;;2.50;;
68757;SDS011;55747;51.998;4.466;2022-08-01T04:19:54;3.92;;;2.55;;
68757;SDS011;55747;51.998;4.466;2022-08-01T04:22:19;6.43;;;2.37;;
68757;SDS011;55747;51.998;4.466;2022-08-01T04:24:48;4.38;;;2.40;;
68757;SDS011;55747;51.998;4.466;2022-08-01T04:27:17;3.35;;;2.60;;
68757;SDS011;55747;51.998;4.466;2022-08-01T04:29:47;4.60;;;2.30;;
68757;SDS011;55747;51.998;4.466;2022-08-01T04:32:15;6.32;;;2.33;;
68757;SDS011;55747;51.998;4.466;2022-08-01T04:34:42;4.97;;;2.88;;
68757;SDS011;55747;51.998;4.466;2022-08-01T04:37:11;5.93;;;2.70;;
68757;SDS011;55747;51.998;4.466;2022-08-01T04:39:38;5.75;;;2.75;;
68757;SDS011;55747;51.998;4.466;2022-08-01T04:42:07;4.85;;;2.63;;
68757;SDS011;55747;51.998;4.466;2022-08-01T04:44:35;4.65;;;2.30;;
68757;SDS011;55747;51.998;4.466;2022-08-01T04:47:02;6.25;;;2.45;;
68757;SDS011;55747;51.998;4.466;2022-08-01T04:49:30;4.40;;;2.40;;
68757;SDS011;55747;51.998;4.466;2022-08-01T04:51:56;5.72;;;2.90;;
68757;SDS011;55747;51.998;4.466;2022-08-01T04:54:28;4.07;;;2.75;;
68757;SDS011;55747;51.998;4.466;2022-08-01T04:56:58;4.78;;;2.47;;
68757;SDS011;55747;51.998;4.466;2022-08-01T04:59:25;3.50;;;2.63;;
68757;SDS011;55747;51.998;4.466;2022-08-01T05:02:07;5.05;;;2.20;;
68757;SDS011;55747;51.998;4.466;2022-08-01T05:04:32;3.88;;;2.25;;
68757;SDS011;55747;51.998;4.466;2022-08-01T05:06:58;3.50;;;1.80;;
68757;SDS011;55747;51.998;4.466;2022-08-01T05:09:23;3.75;;;1.63;;
68757;SDS011;55747;51.998;4.466;2022-08-01T05:11:49;3.63;;;1.80;;
68757;SDS011;55747;51.998;4.466;2022-08-01T05:14:14;3.90;;;1.97;;
68757;SDS011;55747;51.998;4.466;2022-08-01T05:16:39;3.72;;;1.77;;
68757;SDS011;55747;51.998;4.466;2022-08-01T05:19:05;2.67;;;1.83;;
68757;SDS011;55747;51.998;4.466;2022-08-01T05:21:30;4.30;;;2.22;;
68757;SDS011;55747;51.998;4.466;2022-08-01T05:23:55;2.70;;;1.90;;
68757;SDS011;55747;51.998;4.466;2022-08-01T05:26:21;4.55;;;1.95;;
68757;SDS011;55747;51.998;4.466;2022-08-01T05:28:46;3.17;;;2.20;;
68757;SDS011;55747;51.998;4.466;2022-08-01T05:31:11;3.43;;;2.20;;
68757;SDS011;55747;51.998;4.466;2022-08-01T05:33:37;3.05;;;2.08;;
68757;SDS011;55747;51.998;4.466;2022-08-01T05:36:02;3.58;;;2.28;;
68757;SDS011;55747;51.998;4.466;2022-08-01T05:38:27;3.63;;;2.20;;
68757;SDS011;55747;51.998;4.466;2022-08-01T05:40:53;3.78;;;1.98;;
68757;SDS011;55747;51.998;4.466;2022-08-01T05:43:18;2.70;;;1.80;;
68757;SDS011;55747;51.998;4.466;2022-08-01T05:45:43;3.30;;;1.83;;
68757;SDS011;55747;51.998;4.466;2022-08-01T05:48:10;2.50;;;1.90;;
68757;SDS011;55747;51.998;4.466;2022-08-01T05:50:36;3.78;;;2.08;;
68757;SDS011;55747;51.998;4.466;2022-08-01T05:53:01;5.03;;;2.30;;
68757;SDS011;55747;51.998;4.466;2022-08-01T05:55:27;8.25;;;2.92;;
68757;SDS011;55747;51.998;4.466;2022-08-01T05:57:52;8.90;;;2.63;;
68757;SDS011;55747;51.998;4.466;2022-08-01T06:00:17;5.20;;;2.43;;
68757;SDS011;55747;51.998;4.466;2022-08-01T06:02:42;6.95;;;2.70;;
68757;SDS011;55747;51.998;4.466;2022-08-01T06:05:08;4.15;;;2.97;;
68757;SDS011;55747;51.998;4.466;2022-08-01T06:07:34;5.50;;;2.83;;
68757;SDS011;55747;51.998;4.466;2022-08-01T06:09:59;6.68;;;3.13;;
68757;SDS011;55747;51.998;4.466;2022-08-01T06:12:25;4.63;;;3.47;;
68757;SDS011;55747;51.998;4.466;2022-08-01T06:14:50;4.77;;;3.87;;
68757;SDS011;55747;51.998;4.466;2022-08-01T06:17:15;4.60;;;3.73;;
68757;SDS011;55747;51.998;4.466;2022-08-01T06:19:41;5.40;;;4.30;;
68757;SDS011;55747;51.998;4.466;2022-08-01T06:22:06;6.70;;;4.68;;
68757;SDS011;55747;51.998;4.466;2022-08-01T06:24:31;6.35;;;4.82;;
68757;SDS011;55747;51.998;4.466;2022-08-01T06:26:57;6.53;;;4.80;;
68757;SDS011;55747;51.998;4.466;2022-08-01T06:29:22;5.90;;;3.87;;
68757;SDS011;55747;51.998;4.466;2022-08-01T06:31:47;6.43;;;3.70;;
68757;SDS011;55747;51.998;4.466;2022-08-01T06:34:12;5.53;;;3.90;;
68757;SDS011;55747;51.998;4.466;2022-08-01T06:36:40;5.88;;;4.50;;
68757;SDS011;55747;51.998;4.466;2022-08-01T06:39:05;6.85;;;5.20;;
68757;SDS011;55747;51.998;4.466;2022-08-01T06:41:30;7.37;;;5.93;;
68757;SDS011;55747;51.998;4.466;2022-08-01T06:43:56;11.85;;;6.18;;
68757;SDS011;55747;51.998;4.466;2022-08-01T06:46:21;9.83;;;5.67;;
68757;SDS011;55747;51.998;4.466;2022-08-01T06:48:46;8.60;;;5.80;;
68757;SDS011;55747;51.998;4.466;2022-08-01T06:51:12;8.33;;;5.87;;
68757;SDS011;55747;51.998;4.466;2022-08-01T06:53:41;7.85;;;5.75;;
68757;SDS011;55747;51.998;4.466;2022-08-01T06:56:06;7.57;;;4.72;;
68757;SDS011;55747;51.998;4.466;2022-08-01T06:58:33;6.30;;;4.88;;
68757;SDS011;55747;51.998;4.466;2022-08-01T07:00:59;7.07;;;4.60;;
68757;SDS011;55747;51.998;4.466;2022-08-01T07:03:25;6.35;;;4.80;;
68757;SDS011;55747;51.998;4.466;2022-08-01T07:05:51;7.65;;;4.45;;
68757;SDS011;55747;51.998;4.466;2022-08-01T07:08:16;9.03;;;5.43;;
68757;SDS011;55747;51.998;4.466;2022-08-01T07:10:41;12.33;;;5.27;;
68757;SDS011;55747;51.998;4.466;2022-08-01T07:13:08;8.60;;;6.18;;
68757;SDS011;55747;51.998;4.466;2022-08-01T07:15:33;11.40;;;6.07;;
68757;SDS011;55747;51.998;4.466;2022-08-01T07:17:58;11.27;;;5.95;;
68757;SDS011;55747;51.998;4.466;2022-08-01T07:20:26;10.95;;;6.18;;
68757;SDS011;55747;51.998;4.466;2022-08-01T07:22:51;10.90;;;6.10;;
68757;SDS011;55747;51.998;4.466;2022-08-01T07:25:17;12.35;;;6.30;;
68757;SDS011;55747;51.998;4.466;2022-08-01T07:27:42;15.23;;;5.90;;
68757;SDS011;55747;51.998;4.466;2022-08-01T07:30:08;12.43;;;6.10;;
68757;SDS011;55747;51.998;4.466;2022-08-01T07:32:34;14.68;;;6.18;;
68757;SDS011;55747;51.998;4.466;2022-08-01T07:34:59;11.45;;;5.85;;
68757;SDS011;55747;51.998;4.466;2022-08-01T07:37:25;20.08;;;5.78;;
68757;SDS011;55747;51.998;4.466;2022-08-01T07:39:51;17.77;;;5.85;;
68757;SDS011;55747;51.998;4.466;2022-08-01T07:42:16;14.63;;;5.27;;
68757;SDS011;55747;51.998;4.466;2022-08-01T07:44:42;24.05;;;5.93;;
68757;SDS011;55747;51.998;4.466;2022-08-01T07:47:07;21.13;;;5.03;;
68757;SDS011;55747;51.998;4.466;2022-08-01T07:49:32;18.43;;;5.10;;
68757;SDS011;55747;51.998;4.466;2022-08-01T07:51:58;16.65;;;4.53;;
68757;SDS011;55747;51.998;4.466;2022-08-01T07:54:24;22.88;;;5.32;;
68757;SDS011;55747;51.998;4.466;2022-08-01T07:56:50;20.33;;;4.18;;
68757;SDS011;55747;51.998;4.466;2022-08-01T07:59:15;12.65;;;3.72;;
68757;SDS011;55747;51.998;4.466;2022-08-01T08:01:41;21.07;;;4.20;;
68757;SDS011;55747;51.998;4.466;2022-08-01T08:04:06;14.35;;;3.83;;
68757;SDS011;55747;51.998;4.466;2022-08-01T08:06:32;14.48;;;3.75;;
68757;SDS011;55747;51.998;4.466;2022-08-01T08:08:57;10.63;;;3.17;;
68757;SDS011;55747;51.998;4.466;2022-08-01T08:11:22;12.37;;;3.43;;
68757;SDS011;55747;51.998;4.466;2022-08-01T08:13:48;12.00;;;3.00;;
68757;SDS011;55747;51.998;4.466;2022-08-01T08:16:13;9.37;;;2.60;;
68757;SDS011;55747;51.998;4.466;2022-08-01T08:18:39;9.70;;;2.80;;
68757;SDS011;55747;51.998;4.466;2022-08-01T08:21:04;10.48;;;2.92;;
68757;SDS011;55747;51.998;4.466;2022-08-01T08:23:29;6.83;;;2.20;;
68757;SDS011;55747;51.998;4.466;2022-08-01T08:26:13;8.15;;;2.45;;
68757;SDS011;55747;51.998;4.466;2022-08-01T08:28:39;13.48;;;3.13;;
68757;SDS011;55747;51.998;4.466;2022-08-01T08:31:04;11.40;;;2.60;;
68757;SDS011;55747;51.998;4.466;2022-08-01T08:33:29;9.57;;;2.43;;
68757;SDS011;55747;51.998;4.466;2022-08-01T08:35:54;10.20;;;2.63;;
68757;SDS011;55747;51.998;4.466;2022-08-01T08:38:20;8.57;;;2.22;;
68757;SDS011;55747;51.998;4.466;2022-08-01T08:40:45;6.07;;;2.40;;
68757;SDS011;55747;51.998;4.466;2022-08-01T08:43:11;11.18;;;2.75;;
68757;SDS011;55747;51.998;4.466;2022-08-01T08:45:37;15.30;;;3.38;;
68757;SDS011;55747;51.998;4.466;2022-08-01T08:48:03;9.85;;;2.38;;
68757;SDS011;55747;51.998;4.466;2022-08-01T08:50:30;10.10;;;2.63;;
68757;SDS011;55747;51.998;4.466;2022-08-01T08:52:56;7.72;;;2.35;;
68757;SDS011;55747;51.998;4.466;2022-08-01T08:55:25;11.00;;;2.35;;
68757;SDS011;55747;51.998;4.466;2022-08-01T08:57:52;7.75;;;2.28;;
68757;SDS011;55747;51.998;4.466;2022-08-01T09:00:18;9.40;;;2.60;;
68757;SDS011;55747;51.998;4.466;2022-08-01T09:02:45;10.63;;;2.42;;
68757;SDS011;55747;51.998;4.466;2022-08-01T09:05:13;9.88;;;2.60;;
68757;SDS011;55747;51.998;4.466;2022-08-01T09:07:39;13.18;;;2.40;;
68757;SDS011;55747;51.998;4.466;2022-08-01T09:10:05;10.13;;;2.53;;
68757;SDS011;55747;51.998;4.466;2022-08-01T09:12:30;11.13;;;3.03;;
68757;SDS011;55747;51.998;4.466;2022-08-01T09:14:56;9.00;;;2.60;;
68757;SDS011;55747;51.998;4.466;2022-08-01T09:17:21;8.63;;;2.45;;
68757;SDS011;55747;51.998;4.466;2022-08-01T09:19:48;13.95;;;2.80;;
68757;SDS011;55747;51.998;4.466;2022-08-01T09:22:17;9.82;;;2.92;;
68757;SDS011;55747;51.998;4.466;2022-08-01T09:24:59;9.85;;;2.95;;
68757;SDS011;55747;51.998;4.466;2022-08-01T09:27:32;11.65;;;2.90;;
68757;SDS011;55747;51.998;4.466;2022-08-01T09:30:12;7.85;;;2.50;;
68757;SDS011;55747;51.998;4.466;2022-08-01T09:35:23;8.73;;;2.50;;
68757;SDS011;55747;51.998;4.466;2022-08-01T09:37:49;6.88;;;2.33;;
68757;SDS011;55747;51.998;4.466;2022-08-01T09:40:14;11.53;;;2.93;;
68757;SDS011;55747;51.998;4.466;2022-08-01T09:42:39;9.63;;;2.60;;
68757;SDS011;55747;51.998;4.466;2022-08-01T09:45:05;9.30;;;2.60;;
68757;SDS011;55747;51.998;4.466;2022-08-01T09:47:38;8.75;;;2.58;;
68757;SDS011;55747;51.998;4.466;2022-08-01T09:50:04;9.30;;;2.28;;
68757;SDS011;55747;51.998;4.466;2022-08-01T09:52:30;5.55;;;1.70;;
68757;SDS011;55747;51.998;4.466;2022-08-01T09:54:56;7.35;;;2.05;;
68757;SDS011;55747;51.998;4.466;2022-08-01T09:57:21;6.45;;;2.00;;
68757;SDS011;55747;51.998;4.466;2022-08-01T09:59:48;5.93;;;1.52;;
68757;SDS011;55747;51.998;4.466;2022-08-01T10:02:26;7.88;;;2.05;;
68757;SDS011;55747;51.998;4.466;2022-08-01T10:05:03;9.85;;;1.83;;
68757;SDS011;55747;51.998;4.466;2022-08-01T10:07:30;8.70;;;2.03;;
68757;SDS011;55747;51.998;4.466;2022-08-01T10:09:56;7.38;;;2.25;;
68757;SDS011;55747;51.998;4.466;2022-08-01T10:12:35;7.72;;;1.95;;
68757;SDS011;55747;51.998;4.466;2022-08-01T10:15:02;11.88;;;2.20;;
68757;SDS011;55747;51.998;4.466;2022-08-01T10:17:28;9.57;;;2.00;;
68757;SDS011;55747;51.998;4.466;2022-08-01T10:19:54;9.40;;;2.05;;
68757;SDS011;55747;51.998;4.466;2022-08-01T10:22:22;5.20;;;1.90;;
68757;SDS011;55747;51.998;4.466;2022-08-01T10:24:49;6.30;;;1.98;;
68757;SDS011;55747;51.998;4.466;2022-08-01T10:27:18;9.77;;;1.80;;
68757;SDS011;55747;51.998;4.466;2022-08-01T10:29:50;10.38;;;2.08;;
68757;SDS011;55747;51.998;4.466;2022-08-01T10:32:20;7.28;;;2.00;;
68757;SDS011;55747;51.998;4.466;2022-08-01T10:34:46;6.32;;;2.00;;
68757;SDS011;55747;51.998;4.466;2022-08-01T10:37:13;11.25;;;2.28;;
68757;SDS011;55747;51.998;4.466;2022-08-01T10:39:39;6.32;;;2.05;;
68757;SDS011;55747;51.998;4.466;2022-08-01T10:42:04;5.72;;;1.75;;
68757;SDS011;55747;51.998;4.466;2022-08-01T10:44:31;6.05;;;1.88;;
68757;SDS011;55747;51.998;4.466;2022-08-01T10:47:07;3.97;;;1.40;;
68757;SDS011;55747;51.998;4.466;2022-08-01T10:49:36;5.82;;;1.60;;
68757;SDS011;55747;51.998;4.466;2022-08-01T10:52:13;6.13;;;1.73;;
68757;SDS011;55747;51.998;4.466;2022-08-01T10:54:39;6.45;;;1.70;;
68757;SDS011;55747;51.998;4.466;2022-08-01T10:57:05;4.55;;;1.42;;
68757;SDS011;55747;51.998;4.466;2022-08-01T10:59:32;6.63;;;1.83;;
68757;SDS011;55747;51.998;4.466;2022-08-01T11:01:59;8.55;;;2.10;;
68757;SDS011;55747;51.998;4.466;2022-08-01T11:04:44;7.90;;;1.70;;
68757;SDS011;55747;51.998;4.466;2022-08-01T11:07:17;6.47;;;1.75;;
68757;SDS011;55747;51.998;4.466;2022-08-01T11:09:46;7.28;;;1.70;;
68757;SDS011;55747;51.998;4.466;2022-08-01T11:12:15;4.93;;;1.55;;
68757;SDS011;55747;51.998;4.466;2022-08-01T11:17:38;5.88;;;1.65;;
68757;SDS011;55747;51.998;4.466;2022-08-01T11:20:15;3.83;;;1.40;;
68757;SDS011;55747;51.998;4.466;2022-08-01T11:25:22;6.50;;;1.60;;
68757;SDS011;55747;51.998;4.466;2022-08-01T11:27:48;4.78;;;1.58;;
68757;SDS011;55747;51.998;4.466;2022-08-01T11:32:55;5.40;;;1.57;;
68757;SDS011;55747;51.998;4.466;2022-08-01T11:35:22;6.53;;;1.90;;
68757;SDS011;55747;51.998;4.466;2022-08-01T11:37:49;6.05;;;1.92;;
68757;SDS011;55747;51.998;4.466;2022-08-01T11:45:50;5.72;;;1.50;;
68757;SDS011;55747;51.998;4.466;2022-08-01T11:48:21;6.07;;;1.60;;
68757;SDS011;55747;51.998;4.466;2022-08-01T11:50:47;6.00;;;2.10;;
68757;SDS011;55747;51.998;4.466;2022-08-01T11:53:15;6.00;;;1.85;;
68757;SDS011;55747;51.998;4.466;2022-08-01T11:55:48;6.40;;;1.95;;
68757;SDS011;55747;51.998;4.466;2022-08-01T11:58:15;4.93;;;1.40;;
68757;SDS011;55747;51.998;4.466;2022-08-01T12:00:55;4.60;;;1.80;;
68757;SDS011;55747;51.998;4.466;2022-08-01T12:03:25;4.40;;;1.88;;
68757;SDS011;55747;51.998;4.466;2022-08-01T12:05:52;4.20;;;1.35;;
68757;SDS011;55747;51.998;4.466;2022-08-01T12:08:28;4.32;;;1.20;;
68757;SDS011;55747;51.998;4.466;2022-08-01T12:10:55;4.90;;;1.30;;
68757;SDS011;55747;51.998;4.466;2022-08-01T12:13:21;4.72;;;1.20;;
68757;SDS011;55747;51.998;4.466;2022-08-01T12:15:47;6.20;;;1.35;;
68757;SDS011;55747;51.998;4.466;2022-08-01T12:18:15;4.53;;;1.38;;
68757;SDS011;55747;51.998;4.466;2022-08-01T12:20:42;4.97;;;1.10;;
68757;SDS011;55747;51.998;4.466;2022-08-01T12:23:10;4.85;;;1.40;;
68757;SDS011;55747;51.998;4.466;2022-08-01T12:25:36;8.82;;;1.60;;
68757;SDS011;55747;51.998;4.466;2022-08-01T12:28:06;6.70;;;1.60;;
68757;SDS011;55747;51.998;4.466;2022-08-01T12:30:33;5.70;;;1.40;;
68757;SDS011;55747;51.998;4.466;2022-08-01T12:33:00;4.97;;;1.50;;
68757;SDS011;55747;51.998;4.466;2022-08-01T12:35:28;5.18;;;1.52;;
68757;SDS011;55747;51.998;4.466;2022-08-01T12:37:55;5.90;;;1.20;;
68757;SDS011;55747;51.998;4.466;2022-08-01T12:40:23;6.75;;;1.50;;
68757;SDS011;55747;51.998;4.466;2022-08-01T12:42:54;5.47;;;1.63;;
68757;SDS011;55747;51.998;4.466;2022-08-01T12:45:22;6.35;;;1.38;;
68757;SDS011;55747;51.998;4.466;2022-08-01T12:48:02;6.85;;;1.40;;
68757;SDS011;55747;51.998;4.466;2022-08-01T12:50:33;5.75;;;1.33;;
68757;SDS011;55747;51.998;4.466;2022-08-01T12:52:58;2.42;;;1.25;;
68757;SDS011;55747;51.998;4.466;2022-08-01T12:55:25;3.15;;;1.30;;
68757;SDS011;55747;51.998;4.466;2022-08-01T12:58:30;7.05;;;1.58;;
68757;SDS011;55747;51.998;4.466;2022-08-01T13:00:44;5.95;;;1.60;;
68757;SDS011;55747;51.998;4.466;2022-08-01T13:03:16;5.25;;;1.45;;
68757;SDS011;55747;51.998;4.466;2022-08-01T13:10:42;5.22;;;1.30;;
68757;SDS011;55747;51.998;4.466;2022-08-01T13:13:08;5.25;;;1.65;;
68757;SDS011;55747;51.998;4.466;2022-08-01T13:15:35;6.55;;;1.65;;
68757;SDS011;55747;51.998;4.466;2022-08-01T13:18:24;5.85;;;1.90;;
68757;SDS011;55747;51.998;4.466;2022-08-01T13:21:06;5.90;;;1.70;;
68757;SDS011;55747;51.998;4.466;2022-08-01T13:23:40;8.30;;;1.75;;
68757;SDS011;55747;51.998;4.466;2022-08-01T13:26:07;6.50;;;1.65;;
68757;SDS011;55747;51.998;4.466;2022-08-01T13:28:35;5.82;;;1.65;;
68757;SDS011;55747;51.998;4.466;2022-08-01T13:31:04;8.38;;;2.00;;
68757;SDS011;55747;51.998;4.466;2022-08-01T13:33:45;4.20;;;1.58;;
68757;SDS011;55747;51.998;4.466;2022-08-01T13:36:12;4.28;;;1.50;;
68757;SDS011;55747;51.998;4.466;2022-08-01T13:38:39;7.32;;;1.63;;
68757;SDS011;55747;51.998;4.466;2022-08-01T13:41:24;6.00;;;2.00;;
68757;SDS011;55747;51.998;4.466;2022-08-01T13:43:50;5.82;;;1.80;;
68757;SDS011;55747;51.998;4.466;2022-08-01T13:46:16;7.68;;;1.88;;
68757;SDS011;55747;51.998;4.466;2022-08-01T13:48:42;4.85;;;1.70;;
68757;SDS011;55747;51.998;4.466;2022-08-01T13:51:07;4.87;;;1.37;;
68757;SDS011;55747;51.998;4.466;2022-08-01T13:53:33;7.75;;;2.00;;
68757;SDS011;55747;51.998;4.466;2022-08-01T13:55:58;4.22;;;1.60;;
68757;SDS011;55747;51.998;4.466;2022-08-01T13:58:24;5.30;;;1.80;;
68757;SDS011;55747;51.998;4.466;2022-08-01T14:00:49;7.18;;;1.67;;
68757;SDS011;55747;51.998;4.466;2022-08-01T14:03:14;4.70;;;1.67;;
68757;SDS011;55747;51.998;4.466;2022-08-01T14:05:41;6.72;;;1.88;;
68757;SDS011;55747;51.998;4.466;2022-08-01T14:08:07;6.88;;;1.83;;
68757;SDS011;55747;51.998;4.466;2022-08-01T14:10:33;7.53;;;1.95;;
68757;SDS011;55747;51.998;4.466;2022-08-01T14:12:59;7.28;;;1.80;;
68757;SDS011;55747;51.998;4.466;2022-08-01T14:15:24;5.57;;;1.73;;
68757;SDS011;55747;51.998;4.466;2022-08-01T14:17:50;5.03;;;1.73;;
68757;SDS011;55747;51.998;4.466;2022-08-01T14:20:15;5.13;;;1.50;;
68757;SDS011;55747;51.998;4.466;2022-08-01T14:22:44;6.03;;;1.63;;
68757;SDS011;55747;51.998;4.466;2022-08-01T14:25:12;4.05;;;1.40;;
68757;SDS011;55747;51.998;4.466;2022-08-01T14:27:38;6.53;;;2.00;;
68757;SDS011;55747;51.998;4.466;2022-08-01T14:30:05;6.60;;;1.50;;
68757;SDS011;55747;51.998;4.466;2022-08-01T14:32:31;6.85;;;1.60;;
68757;SDS011;55747;51.998;4.466;2022-08-01T14:34:58;6.68;;;1.65;;
68757;SDS011;55747;51.998;4.466;2022-08-01T14:37:23;5.75;;;1.73;;
68757;SDS011;55747;51.998;4.466;2022-08-01T14:39:49;6.37;;;1.80;;
68757;SDS011;55747;51.998;4.466;2022-08-01T14:42:14;6.15;;;1.67;;
68757;SDS011;55747;51.998;4.466;2022-08-01T14:44:39;6.27;;;1.70;;
68757;SDS011;55747;51.998;4.466;2022-08-01T14:47:05;9.70;;;1.90;;
68757;SDS011;55747;51.998;4.466;2022-08-01T14:49:30;6.55;;;1.65;;
68757;SDS011;55747;51.998;4.466;2022-08-01T14:51:55;7.53;;;1.90;;
68757;SDS011;55747;51.998;4.466;2022-08-01T14:54:20;6.67;;;1.63;;
68757;SDS011;55747;51.998;4.466;2022-08-01T14:56:46;2.93;;;1.20;;
68757;SDS011;55747;51.998;4.466;2022-08-01T14:59:11;5.53;;;1.40;;
68757;SDS011;55747;51.998;4.466;2022-08-01T15:01:37;4.87;;;1.50;;
68757;SDS011;55747;51.998;4.466;2022-08-01T15:04:02;4.67;;;1.50;;
68757;SDS011;55747;51.998;4.466;2022-08-01T15:06:27;5.87;;;1.60;;
68757;SDS011;55747;51.998;4.466;2022-08-01T15:08:53;6.28;;;1.63;;
68757;SDS011;55747;51.998;4.466;2022-08-01T15:11:18;5.10;;;1.67;;
68757;SDS011;55747;51.998;4.466;2022-08-01T15:13:43;6.37;;;1.67;;
68757;SDS011;55747;51.998;4.466;2022-08-01T15:16:09;7.77;;;1.67;;
68757;SDS011;55747;51.998;4.466;2022-08-01T15:18:34;11.45;;;1.88;;
68757;SDS011;55747;51.998;4.466;2022-08-01T15:21:00;3.20;;;1.37;;
68757;SDS011;55747;51.998;4.466;2022-08-01T15:23:25;4.50;;;1.53;;